Time;durP1;ratioP1;P1;durP2;ratioP2;P2;SDS_P1;SDS_P2;PMS_P1;PMS_P2;Temp;Humidity;BMP_temperature;BMP_pressure;BME280_temperature;BME280_humidity;BME280_pressure;Samples;Min_cycle;Max_cycle;Signal;HPM_P1;HPM_P2
2023/09/19 00:00:34;;;;;;;5.93;3.67;;;;;;;20.57;100.00;98902.09;5052982;28;20017;-83
2023/09/19 00:02:59;;;;;;;3.58;3.03;;;;;;;20.61;100.00;98900.00;5053056;28;20028;-84
2023/09/19 00:05:29;;;;;;;5.22;2.88;;;;;;;20.52;100.00;98871.78;5052671;28;20029;-84
2023/09/19 00:08:00;;;;;;;4.05;3.03;;;;;;;20.48;100.00;98873.03;5052802;28;20029;-84
2023/09/19 00:10:26;;;;;;;3.15;2.67;;;;;;;20.44;100.00;98881.31;5034567;28;20476;-84
2023/09/19 00:12:55;;;;;;;6.18;3.08;;;;;;;20.41;100.00;98886.91;5052894;28;20033;-84
2023/09/19 00:15:30;;;;;;;4.93;2.90;;;;;;;20.40;100.00;98892.34;5034086;28;20029;-84
2023/09/19 00:17:56;;;;;;;4.38;3.47;;;;;;;20.30;100.00;98873.06;5053007;28;20029;-84
2023/09/19 00:20:23;;;;;;;4.88;2.90;;;;;;;20.48;100.00;98904.78;5034372;28;20383;-84
2023/09/19 00:22:51;;;;;;;4.80;3.30;;;;;;;20.43;100.00;98892.03;5052497;28;20025;-84
2023/09/19 00:25:17;;;;;;;3.38;2.70;;;;;;;20.37;100.00;98876.78;5052426;28;20109;-84
2023/09/19 00:27:44;;;;;;;4.20;2.85;;;;;;;20.52;100.00;98893.81;5052597;28;20036;-84
2023/09/19 00:30:14;;;;;;;4.68;3.08;;;;;;;20.22;100.00;98849.19;5052247;28;20025;-84
2023/09/19 00:32:41;;;;;;;4.40;2.60;;;;;;;20.46;100.00;98885.59;5034555;28;20028;-85
2023/09/19 00:35:08;;;;;;;3.70;2.58;;;;;;;20.39;100.00;98878.31;5034255;28;20074;-84
2023/09/19 00:37:34;;;;;;;7.32;2.80;;;;;;;20.40;100.00;98884.41;5034500;28;20539;-84
2023/09/19 00:39:59;;;;;;;2.90;2.60;;;;;;;20.31;100.00;98870.28;5052314;28;20128;-84
2023/09/19 00:42:25;;;;;;;3.33;2.53;;;;;;;20.21;100.00;98853.66;5050855;28;20039;-84
2023/09/19 00:44:52;;;;;;;4.10;2.47;;;;;;;20.29;100.00;98876.72;5052304;28;20056;-84
2023/09/19 00:47:18;;;;;;;3.78;2.45;;;;;;;20.36;100.00;98881.25;5033897;28;20478;-84
2023/09/19 00:49:50;;;;;;;3.80;2.70;;;;;;;20.42;100.00;98898.31;5034186;28;20055;-84
2023/09/19 00:52:19;;;;;;;3.78;2.38;;;;;;;20.37;100.00;98882.91;5052294;28;20017;-84
2023/09/19 00:54:45;;;;;;;4.25;2.45;;;;;;;20.22;100.00;98865.91;5052141;28;20062;-84
2023/09/19 00:57:11;;;;;;;5.35;2.08;;;;;;;20.23;100.00;98856.19;5051891;28;20044;-83
2023/09/19 00:59:36;;;;;;;5.07;2.58;;;;;;;20.15;100.00;98844.53;5051946;28;20028;-84
2023/09/19 01:02:02;;;;;;;2.70;2.40;;;;;;;20.21;100.00;98850.19;5050683;28;20052;-84
2023/09/19 01:04:28;;;;;;;5.50;2.60;;;;;;;20.38;100.00;98873.97;5033771;28;20028;-83
2023/09/19 01:06:54;;;;;;;4.45;2.92;;;;;;;20.38;100.00;98879.25;5052086;28;20055;-84
2023/09/19 01:09:20;;;;;;;2.75;2.20;;;;;;;20.40;100.00;98879.13;5051761;28;20116;-84
2023/09/19 01:11:49;;;;;;;3.70;2.75;;;;;;;20.24;100.00;98858.66;5051898;28;20017;-84
2023/09/19 01:14:24;;;;;;;6.60;2.53;;;;;;;20.44;100.00;98896.34;5051659;28;20533;-84
2023/09/19 01:17:00;;;;;;;4.88;2.40;;;;;;;20.43;100.00;98897.31;5051652;28;20386;-84
2023/09/19 01:20:07;;;;;;;3.42;2.47;;;;;;;20.32;100.00;98887.00;5051382;28;20468;-84
2023/09/19 01:22:37;;;;;;;3.17;2.83;;;;;;;20.38;100.00;98894.31;5050387;28;20033;-84
2023/09/19 01:25:24;;;;;;;5.30;2.80;;;;;;;20.35;100.00;98897.25;5051776;28;20102;-84
2023/09/19 01:28:31;;;;;;;4.88;3.25;;;;;;;20.28;100.00;98891.75;5036561;28;20449;-84
2023/09/19 01:30:59;;;;;;;5.00;2.88;;;;;;;20.16;100.00;98880.56;4977686;28;20046;-84
2023/09/19 01:33:25;;;;;;;4.40;2.92;;;;;;;20.15;100.00;98878.91;4993752;28;20038;-84
2023/09/19 01:35:52;;;;;;;3.55;2.80;;;;;;;20.10;100.00;98872.38;4993900;28;20042;-84
2023/09/19 01:48:15;;;;;;;7.60;3.03;;;;;;;20.00;100.00;98874.28;5055176;28;20084;-84
2023/09/19 01:50:48;;;;;;;5.60;2.53;;;;;;;20.01;100.00;98889.16;5037639;28;20507;-84
2023/09/19 01:53:23;;;;;;;4.32;2.58;;;;;;;19.80;100.00;98850.63;5037334;28;20029;-84
2023/09/19 01:55:50;;;;;;;4.60;2.65;;;;;;;19.94;100.00;98887.13;5055328;28;20032;-84
2023/09/19 01:58:32;;;;;;;3.50;2.70;;;;;;;19.85;100.00;98856.31;5055077;28;20037;-84
2023/09/19 02:01:00;;;;;;;4.68;2.78;;;;;;;19.78;100.00;98852.59;5055475;28;20028;-84
2023/09/19 02:03:28;;;;;;;6.47;2.70;;;;;;;19.81;100.00;98869.97;5037112;28;20040;-84
2023/09/19 02:05:54;;;;;;;6.68;3.58;;;;;;;19.82;100.00;98872.47;5055243;28;20020;-84
2023/09/19 02:08:23;;;;;;;3.72;2.58;;;;;;;19.71;100.00;98858.63;5036934;28;20021;-84
2023/09/19 02:10:49;;;;;;;4.28;2.75;;;;;;;19.68;100.00;98851.84;5037038;28;20035;-84
2023/09/19 02:13:17;;;;;;;3.63;2.92;;;;;;;19.58;100.00;98843.94;5054750;28;20028;-84
2023/09/19 02:15:44;;;;;;;5.25;2.88;;;;;;;19.68;100.00;98849.22;5054922;28;20029;-84
2023/09/19 02:18:09;;;;;;;4.18;2.63;;;;;;;19.75;100.00;98858.19;5055072;28;20028;-84
2023/09/19 02:20:35;;;;;;;3.13;2.65;;;;;;;19.71;100.00;98856.00;5053324;28;20479;-84
2023/09/19 02:23:00;;;;;;;4.43;3.05;;;;;;;19.67;100.00;98853.63;5053637;28;20394;-84
2023/09/19 02:25:27;;;;;;;4.43;3.15;;;;;;;19.71;100.00;98851.53;5054609;28;20025;-84
2023/09/19 02:27:53;;;;;;;3.35;2.70;;;;;;;19.57;100.00;98831.72;5054668;28;20483;-84
2023/09/19 02:30:20;;;;;;;4.20;3.05;;;;;;;19.63;100.00;98841.69;5054550;28;20033;-84
2023/09/19 02:32:46;;;;;;;5.03;3.05;;;;;;;19.59;100.00;98836.84;5053482;28;20493;-84
2023/09/19 02:35:12;;;;;;;3.75;3.00;;;;;;;19.62;100.00;98839.22;5036710;28;20376;-84
2023/09/19 02:37:37;;;;;;;4.40;3.05;;;;;;;19.58;100.00;98843.94;5053776;28;20028;-84
2023/09/19 02:40:16;;;;;;;4.53;2.97;;;;;;;19.56;100.00;98834.50;5054320;28;20025;-84
2023/09/19 02:42:48;;;;;;;7.15;3.08;;;;;;;19.51;100.00;98840.25;5036782;28;20017;-84
2023/09/19 02:45:13;;;;;;;3.63;2.90;;;;;;;19.52;100.00;98844.53;5054620;28;20100;-84
2023/09/19 02:47:40;;;;;;;4.10;3.08;;;;;;;19.47;100.00;98830.94;5054204;28;20112;-84
2023/09/19 02:50:06;;;;;;;7.03;3.25;;;;;;;19.34;100.00;98812.81;5054319;28;20507;-84
2023/09/19 02:52:31;;;;;;;3.63;2.95;;;;;;;19.48;100.00;98840.53;5054011;28;20064;-84
2023/09/19 02:54:57;;;;;;;2.95;2.42;;;;;;;19.29;100.00;98814.22;5054144;28;20079;-84
2023/09/19 02:57:24;;;;;;;6.82;3.33;;;;;;;19.39;100.00;98829.03;5054133;28;20021;-84
2023/09/19 02:59:49;;;;;;;4.13;2.90;;;;;;;19.44;100.00;98852.38;5054138;28;20036;-84
2023/09/19 03:02:15;;;;;;;5.28;3.00;;;;;;;19.43;100.00;98850.72;5036191;28;20025;-84
2023/09/19 03:04:41;;;;;;;4.25;3.42;;;;;;;19.38;100.00;98847.66;5053847;28;20036;-84
2023/09/19 03:07:06;;;;;;;4.15;3.35;;;;;;;19.17;100.00;98810.94;5053982;28;20399;-84
2023/09/19 03:09:31;;;;;;;3.92;2.85;;;;;;;19.34;100.00;98843.66;5053558;28;20025;-83
2023/09/19 03:11:57;;;;;;;4.82;3.60;;;;;;;19.18;100.00;98818.72;5054042;28;20028;-84
2023/09/19 03:14:23;;;;;;;4.15;3.08;;;;;;;19.37;100.00;98844.19;5053574;28;20036;-84
2023/09/19 03:16:49;;;;;;;3.92;2.80;;;;;;;19.35;100.00;98846.16;5053880;28;20430;-84
2023/09/19 03:19:15;;;;;;;6.20;3.28;;;;;;;19.33;100.00;98847.28;5054042;28;20057;-84
2023/09/19 03:21:40;;;;;;;5.40;3.58;;;;;;;19.34;100.00;98856.84;5053511;28;20025;-84
2023/09/19 03:24:06;;;;;;;4.90;2.97;;;;;;;19.31;100.00;98852.72;5035767;28;20106;-84
2023/09/19 03:26:33;;;;;;;3.53;3.22;;;;;;;19.20;100.00;98824.69;5053574;28;20033;-84
2023/09/19 03:28:58;;;;;;;4.18;3.20;;;;;;;19.13;100.00;98822.75;5052241;28;20033;-84
2023/09/19 03:31:23;;;;;;;6.05;3.80;;;;;;;19.21;100.00;98830.78;5053468;28;20027;-84
2023/09/19 03:33:49;;;;;;;4.88;3.72;;;;;;;19.25;100.00;98834.78;5053568;28;20112;-84
2023/09/19 03:36:14;;;;;;;4.80;3.95;;;;;;;19.24;100.00;98835.78;5052043;28;20115;-84
2023/09/19 03:38:40;;;;;;;6.25;4.20;;;;;;;19.18;100.00;98826.66;5072557;28;20028;-84
2023/09/19 03:41:05;;;;;;;6.05;3.95;;;;;;;19.23;100.00;98841.22;5073399;28;20032;-84
2023/09/19 03:43:32;;;;;;;6.85;4.82;;;;;;;19.15;100.00;98824.28;5055310;28;20410;-84
2023/09/19 03:46:02;;;;;;;7.38;4.72;;;;;;;19.32;100.00;98850.91;5055393;28;20020;-84
2023/09/19 03:48:27;;;;;;;5.57;4.63;;;;;;;19.35;100.00;98859.38;5072853;28;20048;-84
2023/09/19 03:50:54;;;;;;;5.97;4.97;;;;;;;19.34;100.00;98856.84;5072169;28;20069;-84
2023/09/19 03:53:19;;;;;;;5.65;5.05;;;;;;;19.32;100.00;98851.72;5073078;28;20499;-84
2023/09/19 03:55:46;;;;;;;6.50;4.88;;;;;;;19.35;100.00;98862.00;5072936;28;20024;-84
2023/09/19 03:58:11;;;;;;;7.68;5.38;;;;;;;19.34;100.00;98851.56;5055267;28;20071;-84
2023/09/19 04:00:36;;;;;;;8.35;5.60;;;;;;;19.35;100.00;98851.44;5054837;28;20048;-84
2023/09/19 04:03:05;;;;;;;8.48;4.72;;;;;;;19.35;100.00;98856.72;5055077;28;20386;-84
2023/09/19 04:05:31;;;;;;;6.93;4.53;;;;;;;19.33;100.00;98849.91;5072614;28;20074;-84
2023/09/19 04:07:56;;;;;;;7.47;5.22;;;;;;;19.15;100.00;98819.00;5054785;28;20024;-84
2023/09/19 04:10:21;;;;;;;8.77;5.35;;;;;;;19.34;100.00;98847.16;5054954;28;20076;-84
2023/09/19 04:12:52;;;;;;;7.70;4.68;;;;;;;19.22;100.00;98831.66;5072859;28;20029;-84
2023/09/19 04:15:17;;;;;;;7.10;4.68;;;;;;;19.10;100.00;98817.81;5072749;28;20107;-84
2023/09/19 04:17:42;;;;;;;7.57;4.50;;;;;;;19.11;100.00;98825.56;5072512;28;20119;-84
2023/09/19 04:20:08;;;;;;;5.95;4.85;;;;;;;19.22;100.00;98853.59;5054395;28;20426;-84
2023/09/19 04:22:34;;;;;;;9.00;5.28;;;;;;;19.07;100.00;98840.03;5072282;28;20078;-84
2023/09/19 04:24:59;;;;;;;7.25;5.15;;;;;;;19.20;100.00;98874.00;5072673;28;20029;-83
2023/09/19 04:27:24;;;;;;;6.03;5.00;;;;;;;19.03;100.00;98848.38;5072314;28;20087;-84
2023/09/19 04:29:53;;;;;;;8.57;5.25;;;;;;;19.09;100.00;98864.47;5072464;28;20032;-84
2023/09/19 04:32:18;;;;;;;8.95;5.93;;;;;;;18.97;100.00;98841.88;5072397;28;20030;-84
2023/09/19 04:34:43;;;;;;;7.15;6.28;;;;;;;18.94;100.00;98840.34;5072032;28;20107;-84
2023/09/19 04:37:08;;;;;;;6.47;5.35;;;;;;;19.04;100.00;98855.31;5072766;28;20117;-83
2023/09/19 04:39:34;;;;;;;7.80;5.28;;;;;;;19.00;100.00;98853.94;5072141;28;20368;-84
2023/09/19 04:41:59;;;;;;;5.95;5.38;;;;;;;19.01;100.00;98860.91;5072357;28;20032;-83
2023/09/19 04:44:25;;;;;;;8.32;5.72;;;;;;;18.87;100.00;98843.69;5054101;28;20074;-84
2023/09/19 04:46:50;;;;;;;7.45;6.15;;;;;;;18.98;100.00;98858.53;5072515;28;20032;-84
2023/09/19 04:49:16;;;;;;;8.95;5.43;;;;;;;18.83;100.00;98839.69;5054016;28;20055;-84
2023/09/19 04:51:42;;;;;;;6.38;5.20;;;;;;;18.97;100.00;98865.63;5071828;28;20074;-84
2023/09/19 04:54:07;;;;;;;7.07;5.40;;;;;;;18.80;100.00;98846.09;5072248;28;20115;-84
2023/09/19 04:56:33;;;;;;;7.15;5.45;;;;;;;18.89;100.00;98861.06;5071742;28;20103;-84
2023/09/19 04:58:59;;;;;;;6.68;5.63;;;;;;;18.76;100.00;98850.00;5072385;28;20020;-84
2023/09/19 05:01:25;;;;;;;6.32;4.65;;;;;;;18.69;100.00;98843.59;5053636;28;20029;-84
2023/09/19 05:03:52;;;;;;;7.03;5.57;;;;;;;18.90;100.00;98889.09;5072046;28;20036;-84
2023/09/19 05:06:21;;;;;;;9.60;5.68;;;;;;;18.73;100.00;98870.56;5072151;28;20374;-84
2023/09/19 05:08:53;;;;;;;6.95;5.63;;;;;;;18.83;100.00;98884.53;5071857;28;20029;-84
2023/09/19 05:11:21;;;;;;;6.68;5.63;;;;;;;18.84;100.00;98886.22;5072417;28;20031;-84
2023/09/19 05:13:47;;;;;;;6.75;5.32;;;;;;;18.84;100.00;98894.97;5071655;28;20040;-84
2023/09/19 05:16:12;;;;;;;6.68;5.10;;;;;;;18.88;100.00;98883.16;5053831;28;20389;-84
2023/09/19 05:18:37;;;;;;;6.43;4.53;;;;;;;18.87;100.00;98886.75;5053649;28;20075;-84
2023/09/19 05:21:03;;;;;;;7.90;4.70;;;;;;;18.82;100.00;98861.78;5053916;28;20539;-83
2023/09/19 05:23:28;;;;;;;6.47;4.47;;;;;;;18.92;100.00;98868.69;5071865;28;20466;-84
2023/09/19 05:25:54;;;;;;;7.38;4.60;;;;;;;18.99;100.00;98876.84;5053878;28;20489;-84
2023/09/19 05:28:20;;;;;;;6.38;4.88;;;;;;;19.06;100.00;98899.06;5053795;28;20462;-84
2023/09/19 05:30:45;;;;;;;6.40;4.55;;;;;;;19.07;100.00;98890.16;5071424;28;20429;-84
2023/09/19 05:33:11;;;;;;;4.88;4.18;;;;;;;18.97;100.00;98873.56;5053607;28;20039;-84
2023/09/19 05:35:39;;;;;;;5.65;4.72;;;;;;;19.01;100.00;98874.94;5053573;28;20028;-84
2023/09/19 05:38:08;;;;;;;6.90;4.50;;;;;;;19.17;100.00;98892.78;5053724;28;20495;-84
2023/09/19 05:40:34;;;;;;;5.68;4.53;;;;;;;19.24;100.00;98898.31;5053233;28;20108;-84
2023/09/19 05:43:00;;;;;;;6.20;4.45;;;;;;;19.29;100.00;98896.91;5071605;28;20528;-84
2023/09/19 05:45:25;;;;;;;5.80;4.53;;;;;;;19.25;100.00;98881.50;5071457;28;20028;-84
2023/09/19 05:47:53;;;;;;;5.53;3.92;;;;;;;19.49;100.00;98910.84;5071128;28;20032;-84
2023/09/19 05:50:19;;;;;;;3.85;3.53;;;;;;;19.52;100.00;98907.94;5053434;28;20053;-84
2023/09/19 05:52:52;;;;;;;6.65;3.90;;;;;;;19.50;100.00;98890.56;5071420;28;20029;-84
2023/09/19 05:55:17;;;;;;;3.97;3.55;;;;;;;19.68;100.00;98905.50;5071609;28;20418;-84
2023/09/19 05:57:43;;;;;;;5.05;3.63;;;;;;;20.09;100.00;98913.88;5053246;28;20023;-84
2023/09/19 06:00:10;;;;;;;6.05;3.45;;;;;;;20.47;100.00;98926.94;5070603;28;20032;-84
2023/09/19 06:02:37;;;;;;;7.10;3.70;;;;;;;21.08;100.00;98939.38;5033260;28;20029;-84
2023/09/19 06:05:06;;;;;;;3.92;3.47;;;;;;;21.28;100.00;98939.94;5051604;28;20033;-84
2023/09/19 06:07:36;;;;;;;4.95;3.40;;;;;;;21.36;100.00;98954.13;5033089;28;20029;-84
2023/09/19 06:10:08;;;;;;;7.85;3.70;;;;;;;21.34;100.00;98944.66;5051414;28;20032;-84
2023/09/19 06:12:37;;;;;;;5.45;3.72;;;;;;;21.29;100.00;98961.00;5049766;28;20029;-84
2023/09/19 06:15:05;;;;;;;4.05;3.28;;;;;;;21.11;100.00;98944.31;5057107;28;20040;-85
2023/09/19 06:17:31;;;;;;;3.95;3.55;;;;;;;20.93;100.00;98942.56;5072239;28;20518;-84
2023/09/19 06:19:56;;;;;;;5.05;3.30;;;;;;;20.87;100.00;98960.88;5045977;28;20062;-84
2023/09/19 06:22:21;;;;;;;4.05;3.40;;;;;;;20.81;100.00;98966.78;5051856;28;20111;-84
2023/09/19 06:24:47;;;;;;;7.03;3.72;;;;;;;20.73;100.00;98964.06;5062638;28;20036;-85
2023/09/19 06:27:13;;;;;;;4.80;4.00;;;;;;;20.79;100.00;98972.22;5054539;28;20065;-85
2023/09/19 06:29:38;;;;;;;4.32;3.38;;;;;;;20.64;100.00;98923.47;5054550;28;20033;-84
2023/09/19 06:32:08;;;;;;;4.20;3.72;;;;;;;20.86;100.00;98943.34;5036975;28;20035;-85
2023/09/19 06:34:34;;;;;;;6.88;3.55;;;;;;;20.77;100.00;98931.00;5054512;28;20067;-84
2023/09/19 06:36:59;;;;;;;5.03;3.30;;;;;;;20.78;100.00;98941.47;5054659;28;20056;-85
2023/09/19 06:39:25;;;;;;;8.85;3.55;;;;;;;20.65;100.00;98926.00;5054269;28;20119;-84
2023/09/19 06:41:53;;;;;;;6.00;3.50;;;;;;;20.67;100.00;98939.06;5054198;28;20045;-84
2023/09/19 06:44:20;;;;;;;5.47;3.58;;;;;;;20.82;100.00;98965.81;5054641;28;20033;-85
2023/09/19 06:46:49;;;;;;;5.97;3.50;;;;;;;20.88;100.00;98973.13;5054123;28;20500;-85
2023/09/19 06:49:15;;;;;;;3.70;3.40;;;;;;;20.97;100.00;98976.66;5036230;28;20041;-84
2023/09/19 06:51:41;;;;;;;4.68;3.08;;;;;;;20.93;100.00;98958.44;5036259;28;20095;-85
2023/09/19 06:54:07;;;;;;;8.02;3.42;;;;;;;21.11;100.00;98978.75;5036476;28;20123;-85
2023/09/19 06:56:32;;;;;;;5.40;3.20;;;;;;;21.20;100.00;98958.47;5053895;28;20109;-85
2023/09/19 06:58:58;;;;;;;4.38;2.78;;;;;;;21.47;100.00;98968.09;5054342;28;20029;-85
2023/09/19 07:01:23;;;;;;;6.63;3.10;;;;;;;21.74;100.00;98967.03;5054261;28;20032;-85
2023/09/19 07:03:49;;;;;;;3.33;2.80;;;;;;;22.16;100.00;98989.13;5054007;28;20111;-85
2023/09/19 07:06:14;;;;;;;5.38;2.85;;;;;;;22.58;100.00;98987.34;5054146;28;20035;-85
2023/09/19 07:08:39;;;;;;;4.80;3.05;;;;;;;22.91;100.00;98991.72;5035915;28;20032;-85
2023/09/19 07:11:06;;;;;;;3.22;2.50;;;;;;;23.33;100.00;99000.47;5052564;28;20029;-85
2023/09/19 07:13:32;;;;;;;3.45;2.15;;;;;;;23.51;99.83;99008.25;5036186;28;20086;-85
2023/09/19 07:15:59;;;;;;;6.60;2.85;;;;;;;23.30;98.69;99008.78;5053731;28;20025;-85
2023/09/19 07:18:25;;;;;;;3.55;2.42;;;;;;;23.29;98.68;99007.94;5053897;28;20033;-85
2023/09/19 07:20:50;;;;;;;2.60;2.35;;;;;;;23.48;98.87;99005.94;5035500;28;20175;-85
2023/09/19 07:23:18;;;;;;;3.00;2.60;;;;;;;23.39;98.85;99013.94;5053781;28;20029;-85
2023/09/19 07:25:44;;;;;;;2.42;2.20;;;;;;;23.70;97.56;98983.16;5035350;28;20032;-85
2023/09/19 07:28:10;;;;;;;3.10;2.55;;;;;;;24.78;94.26;99008.03;5053764;28;20029;-85
2023/09/19 07:30:39;;;;;;;4.18;2.33;;;;;;;25.41;90.50;99014.00;5052130;28;20033;-85
2023/09/19 07:33:05;;;;;;;4.47;2.70;;;;;;;25.43;89.36;99032.47;5035766;28;20116;-85
2023/09/19 07:35:31;;;;;;;2.38;2.17;;;;;;;24.81;90.40;99010.31;5035575;28;20110;-84
2023/09/19 07:37:58;;;;;;;3.08;2.58;;;;;;;24.54;91.73;99032.16;5053243;28;20075;-84
2023/09/19 07:40:26;;;;;;;4.38;2.95;;;;;;;23.95;92.34;99023.78;5053211;28;20111;-85
2023/09/19 07:42:52;;;;;;;3.03;2.67;;;;;;;23.73;94.00;99036.81;5052246;28;20152;-84
2023/09/19 07:45:17;;;;;;;2.97;2.20;;;;;;;23.64;95.67;99037.81;5053388;28;20107;-85
2023/09/19 07:47:46;;;;;;;3.28;2.60;;;;;;;23.71;94.64;99044.13;5052787;28;20123;-85
2023/09/19 07:50:12;;;;;;;2.85;2.45;;;;;;;23.75;94.71;99049.94;5052868;28;20053;-85
2023/09/19 07:52:39;;;;;;;3.80;2.38;;;;;;;23.57;94.28;99019.03;5034626;28;20378;-85
2023/09/19 07:55:08;;;;;;;3.38;2.30;;;;;;;23.73;94.99;99052.75;5053120;28;20033;-85
2023/09/19 07:57:34;;;;;;;3.35;2.55;;;;;;;23.49;94.48;99035.00;5052960;28;20119;-85
2023/09/19 07:59:59;;;;;;;4.07;2.60;;;;;;;23.26;94.40;99044.66;5034432;28;20115;-85
2023/09/19 08:02:25;;;;;;;3.83;2.47;;;;;;;22.94;95.46;99045.50;5052854;28;20033;-85
2023/09/19 08:04:51;;;;;;;5.53;2.40;;;;;;;22.48;97.02;99022.00;5052348;28;20079;-85
2023/09/19 08:07:18;;;;;;;3.33;2.17;;;;;;;22.39;98.07;99053.00;5034553;28;20021;-85
2023/09/19 08:09:48;;;;;;;2.83;2.53;;;;;;;22.23;98.76;99060.09;5052505;28;20029;-85
2023/09/19 08:12:14;;;;;;;3.15;2.58;;;;;;;22.05;99.63;99058.31;5052655;28;20059;-85
2023/09/19 08:14:41;;;;;;;3.65;2.42;;;;;;;21.90;100.00;99057.25;5034153;28;20490;-85
2023/09/19 08:17:08;;;;;;;3.15;2.55;;;;;;;21.66;100.00;99042.06;5052510;28;20032;-85
2023/09/19 08:19:33;;;;;;;4.90;3.35;;;;;;;21.69;100.00;99068.22;5052518;28;20112;-85
2023/09/19 08:21:59;;;;;;;4.07;2.78;;;;;;;21.67;100.00;99073.69;5052053;28;20113;-84
2023/09/19 08:24:28;;;;;;;4.03;2.50;;;;;;;21.70;100.00;99077.88;5052197;28;20557;-85
2023/09/19 08:26:56;;;;;;;3.45;2.60;;;;;;;21.71;100.00;99068.09;5033920;28;20033;-85
2023/09/19 08:29:29;;;;;;;2.90;2.58;;;;;;;21.92;100.00;99085.28;5052257;28;20025;-84
2023/09/19 08:31:55;;;;;;;3.10;2.58;;;;;;;21.87;100.00;99062.88;5034130;28;20029;-85
2023/09/19 08:34:21;;;;;;;3.42;2.80;;;;;;;22.06;100.00;99080.38;5034139;28;20051;-85
2023/09/19 08:36:47;;;;;;;3.65;2.65;;;;;;;22.05;100.00;99081.38;5033569;28;20044;-85
2023/09/19 08:39:13;;;;;;;3.83;2.47;;;;;;;22.23;100.00;99097.22;5034040;28;20028;-85
2023/09/19 08:41:39;;;;;;;3.40;2.65;;;;;;;22.23;100.00;99095.41;5051846;28;20139;-85
2023/09/19 08:44:05;;;;;;;3.55;2.40;;;;;;;22.25;99.86;99100.53;5052012;28;20025;-84
2023/09/19 08:46:34;;;;;;;5.20;2.63;;;;;;;22.21;99.73;99088.59;5052260;28;20086;-84
2023/09/19 08:49:25;;;;;;;2.75;2.45;;;;;;;22.01;99.03;99072.06;5051709;28;20530;-84
2023/09/19 08:52:05;;;;;;;5.22;2.83;;;;;;;21.86;99.60;99080.59;5034130;28;20037;-85
2023/09/19 08:54:39;;;;;;;3.95;2.50;;;;;;;21.84;100.00;99082.59;5052181;28;20040;-85
2023/09/19 08:57:10;;;;;;;2.30;2.10;;;;;;;21.82;100.00;99078.41;5034279;28;20379;-85
2023/09/19 08:59:38;;;;;;;;;;;;;;;21.90;100.00;99108.44;5052320;28;20033;-85
2023/09/19 09:02:03;;;;;;;3.95;2.38;;;;;;;21.92;100.00;99095.06;5033989;28;19958;-85
2023/09/19 09:04:30;;;;;;;4.40;2.50;;;;;;;22.11;99.53;99101.94;5052113;28;20017;-85
2023/09/19 09:06:58;;;;;;;3.10;2.38;;;;;;;22.30;99.66;99111.53;5033924;28;20112;-85
2023/09/19 09:09:23;;;;;;;3.92;2.28;;;;;;;22.33;97.77;99105.88;5034093;28;20025;-85
2023/09/19 09:11:52;;;;;;;7.78;2.53;;;;;;;22.30;97.40;99104.38;5033776;28;20120;-84
2023/09/19 09:14:21;;;;;;;5.00;2.65;;;;;;;22.51;97.12;99121.72;5052016;28;20422;-84
2023/09/19 09:16:48;;;;;;;3.15;2.20;;;;;;;22.30;97.19;99085.81;5051723;28;20086;-84
2023/09/19 09:19:14;;;;;;;3.50;2.38;;;;;;;22.60;97.48;99110.94;5051793;28;20108;-85
2023/09/19 09:21:40;;;;;;;2.70;2.20;;;;;;;22.59;97.38;99092.56;5051832;28;20057;-85
2023/09/19 09:25:01;;;;;;;5.63;2.17;;;;;;;22.75;95.48;99123.59;5051461;28;20051;-85
2023/09/19 09:27:26;;;;;;;7.63;2.60;;;;;;;22.67;94.74;99130.56;4990131;28;20362;-84
2023/09/19 09:29:54;;;;;;;3.13;2.30;;;;;;;22.60;93.96;99116.25;4989692;28;20077;-84
2023/09/19 09:32:34;;;;;;;4.63;2.20;;;;;;;22.87;93.29;99135.56;4990056;28;20027;-84
2023/09/19 09:35:01;;;;;;;2.47;2.25;;;;;;;22.70;92.53;99104.66;4989801;28;20050;-84
2023/09/19 09:37:29;;;;;;;3.33;2.40;;;;;;;22.72;93.10;99114.16;4989977;28;20030;-84
2023/09/19 09:39:58;;;;;;;2.45;2.25;;;;;;;22.81;92.45;99137.06;4989633;28;20482;-85
2023/09/19 09:42:38;;;;;;;5.47;2.45;;;;;;;22.81;92.71;99146.84;4989877;28;20118;-84
2023/09/19 09:45:15;;;;;;;3.03;2.45;;;;;;;22.80;94.15;99147.84;4988670;28;20031;-85
2023/09/19 09:48:14;;;;;;;3.67;2.65;;;;;;;22.77;93.20;99141.03;4990025;28;20596;-85
2023/09/19 09:50:51;;;;;;;4.20;2.30;;;;;;;23.04;92.96;99150.56;4993024;28;20054;-85
2023/09/19 09:53:29;;;;;;;5.57;2.50;;;;;;;23.04;92.90;99124.00;4977169;28;20122;-85
2023/09/19 09:56:00;;;;;;;2.72;2.10;;;;;;;23.28;92.51;99162.25;4993177;28;20512;-85
2023/09/19 09:58:29;;;;;;;5.45;2.30;;;;;;;23.22;91.72;99150.47;4993356;28;20125;-85
2023/09/19 10:00:57;;;;;;;2.70;2.10;;;;;;;23.09;92.56;99147.41;5027295;28;20040;-85
2023/09/19 10:03:47;;;;;;;4.38;2.45;;;;;;;23.11;92.75;99162.22;5057033;28;20017;-85
2023/09/19 10:09:13;;;;;;;2.78;2.40;;;;;;;22.94;92.48;99154.38;5074389;28;20037;-85
2023/09/19 10:11:46;;;;;;;4.45;2.10;;;;;;;23.16;91.52;99173.16;5075120;28;20033;-84
2023/09/19 10:14:14;;;;;;;3.45;2.13;;;;;;;23.21;91.54;99164.72;5074678;28;20028;-84
2023/09/19 10:16:47;;;;;;;4.10;2.45;;;;;;;23.22;92.06;99149.59;5074615;28;20111;-84
2023/09/19 10:19:30;;;;;;;4.80;2.35;;;;;;;23.23;91.52;99146.78;5056736;28;20031;-85
2023/09/19 10:21:56;;;;;;;3.28;2.00;;;;;;;23.37;91.43;99170.03;5074479;28;20506;-85
2023/09/19 10:24:23;;;;;;;5.07;2.60;;;;;;;23.38;91.63;99170.88;5074679;28;20127;-85
2023/09/19 10:26:50;;;;;;;2.50;2.22;;;;;;;23.33;90.87;99159.91;5074155;28;20356;-85
2023/09/19 10:29:18;;;;;;;4.03;2.47;;;;;;;23.32;90.40;99171.53;5074404;28;20434;-85
2023/09/19 10:31:47;;;;;;;5.18;3.60;;;;;;;23.25;91.83;99170.53;5074558;28;20032;-84
2023/09/19 10:34:14;;;;;;;2.63;2.42;;;;;;;23.31;92.22;99168.06;5074438;28;20036;-85
2023/09/19 10:36:44;;;;;;;4.78;2.50;;;;;;;23.35;89.77;99179.19;5074254;28;20099;-84
2023/09/19 10:39:13;;;;;;;2.90;1.95;;;;;;;23.16;88.69;99159.06;5074064;28;20382;-85
2023/09/19 10:41:39;;;;;;;2.55;1.80;;;;;;;22.98;88.07;99174.31;5074021;28;20037;-85
2023/09/19 10:44:05;;;;;;;3.05;2.00;;;;;;;22.79;88.77;99176.19;5074071;28;20074;-85
2023/09/19 10:46:32;;;;;;;2.30;2.00;;;;;;;22.93;88.82;99204.00;5074113;28;20475;-85
2023/09/19 10:49:02;;;;;;;2.75;2.08;;;;;;;22.88;88.49;99198.28;5055507;28;20052;-85
2023/09/19 10:51:43;;;;;;;3.63;2.10;;;;;;;22.63;86.45;99184.97;5074773;28;20382;-85
2023/09/19 10:54:13;;;;;;;5.75;2.30;;;;;;;22.76;87.62;99204.91;5056093;28;20067;-85
2023/09/19 10:56:45;;;;;;;2.78;2.08;;;;;;;22.74;86.00;99198.94;5074424;28;20360;-85
2023/09/19 10:59:12;;;;;;;3.33;1.60;;;;;;;22.64;87.73;99186.63;5073610;28;20027;-85
2023/09/19 11:01:51;;;;;;;2.38;1.95;;;;;;;22.55;85.72;99176.13;5074185;28;20074;-85
2023/09/19 11:04:24;;;;;;;2.20;1.80;;;;;;;22.73;85.57;99199.94;5074062;28;20459;-85
2023/09/19 11:07:12;;;;;;;3.85;2.22;;;;;;;22.66;84.33;99197.06;5073809;28;20489;-85
2023/09/19 11:09:53;;;;;;;2.92;2.10;;;;;;;22.55;84.03;99184.09;5074057;28;20103;-85
2023/09/19 11:12:40;;;;;;;2.10;1.83;;;;;;;22.82;82.87;99196.31;5056087;28;20098;-85
2023/09/19 11:15:13;;;;;;;3.38;1.70;;;;;;;22.76;82.26;99184.50;5055952;28;20562;-85
2023/09/19 11:17:45;;;;;;;2.47;1.92;;;;;;;22.99;83.28;99190.06;5056024;28;20494;-85
2023/09/19 11:22:58;;;;;;;4.05;2.22;;;;;;;23.16;82.34;99205.06;5073790;28;20071;-85
2023/09/19 11:25:29;;;;;;;2.22;1.98;;;;;;;23.01;80.80;99212.00;5073708;28;20062;-84
2023/09/19 11:30:33;;;;;;;3.28;2.00;;;;;;;22.62;81.23;99201.84;5073664;28;20037;-85
2023/09/19 11:33:21;;;;;;;2.90;2.20;;;;;;;22.68;82.07;99208.38;5073382;28;20036;-85
2023/09/19 11:36:02;;;;;;;3.25;1.90;;;;;;;22.52;81.92;99174.63;5073393;28;20070;-85
2023/09/19 11:38:44;;;;;;;3.88;2.10;;;;;;;22.76;81.88;99213.72;5072157;28;20112;-85
2023/09/19 11:41:21;;;;;;;3.45;1.98;;;;;;;22.85;82.42;99207.44;5073253;28;20028;-84
2023/09/19 11:43:54;;;;;;;2.15;1.70;;;;;;;22.92;83.16;99202.31;5073473;28;20025;-84
2023/09/19 11:46:21;;;;;;;3.85;1.73;;;;;;;23.01;83.08;99208.53;5073531;28;20093;-84
2023/09/19 11:48:50;;;;;;;3.17;1.60;;;;;;;23.06;83.09;99206.22;5073084;28;20080;-84
2023/09/19 11:51:27;;;;;;;2.00;1.83;;;;;;;22.98;82.28;99183.09;5073387;28;20028;-84
2023/09/19 11:53:59;;;;;;;2.80;1.80;;;;;;;23.08;83.31;99202.38;5073005;28;20125;-84